createdAt,value
2019-04-23T00:00:07.549Z,14.15
2019-04-23T00:01:14.796Z,14.12
2019-04-23T00:02:04.217Z,14.15
2019-04-23T00:03:08.283Z,14.26
2019-04-23T00:04:08.549Z,14.24
2019-04-23T00:05:08.256Z,14.19
2019-04-23T00:06:16.995Z,14.05
2019-04-23T00:07:15.844Z,14.05
2019-04-23T00:08:09.667Z,14.08
2019-04-23T00:09:12.530Z,14.05
2019-04-23T00:10:12.731Z,13.95
2019-04-23T00:12:14.697Z,14.03
2019-04-23T00:13:05.693Z,14.06
2019-04-23T00:14:15.172Z,14.01
2019-04-23T00:15:13.484Z,14.02
2019-04-23T00:16:27.771Z,14.03
2019-04-23T00:17:05.855Z,14.03
2019-04-23T00:18:12.502Z,13.99
2019-04-23T00:19:03.206Z,13.95
2019-04-23T00:20:09.896Z,13.97
2019-04-23T00:21:13.847Z,14.03
2019-04-23T00:22:05.592Z,13.97
2019-04-23T00:24:21.315Z,13.97
2019-04-23T00:26:08.064Z,14.01
2019-04-23T00:27:22.582Z,13.93
2019-04-23T00:28:16.411Z,13.91
2019-04-23T00:29:11.855Z,13.90
2019-04-23T00:30:10.385Z,13.84
2019-04-23T00:31:13.427Z,13.73
2019-04-23T00:32:08.154Z,13.72
2019-04-23T00:33:15.438Z,13.79
2019-04-23T00:34:10.804Z,13.75
2019-04-23T00:35:05.953Z,13.76
2019-04-23T00:36:17.567Z,13.72
2019-04-23T00:37:13.006Z,13.65
2019-04-23T00:38:13.924Z,13.66
2019-04-23T00:39:11.671Z,13.65
2019-04-23T00:40:02.655Z,13.70
2019-04-23T00:41:11.278Z,13.68
2019-04-23T00:42:10.310Z,13.65
2019-04-23T00:43:11.897Z,13.63
2019-04-23T00:44:06.405Z,13.63
2019-04-23T00:45:12.267Z,13.57
2019-04-23T00:46:12.714Z,13.53
2019-04-23T00:47:08.928Z,13.51
2019-04-23T00:48:15.146Z,13.54
2019-04-23T00:49:18.110Z,13.51
2019-04-23T00:50:12.134Z,13.54
2019-04-23T00:51:03.449Z,13.37
2019-04-23T00:52:14.491Z,13.42
2019-04-23T00:53:15.803Z,13.44
2019-04-23T00:54:12.213Z,13.36
2019-04-23T00:55:10.713Z,13.37
2019-04-23T00:56:30.010Z,13.39
2019-04-23T00:58:12.494Z,13.37
2019-04-23T00:59:08.373Z,13.27
2019-04-23T01:01:26.491Z,13.24
2019-04-23T01:02:13.320Z,13.24
2019-04-23T01:04:07.162Z,13.17
2019-04-23T01:05:11.426Z,13.25
2019-04-23T01:06:16.034Z,13.24
2019-04-23T01:07:12.704Z,13.20
2019-04-23T01:08:13.280Z,13.19
2019-04-23T01:09:10.412Z,13.20
2019-04-23T01:12:21.411Z,13.09
2019-04-23T01:13:14.874Z,13.09
2019-04-23T01:14:08.247Z,13.06
2019-04-23T01:15:10.277Z,13.09
2019-04-23T01:16:11.509Z,13.09
2019-04-23T01:17:19.925Z,13.10
2019-04-23T01:18:10.921Z,13.09
2019-04-23T01:19:12.191Z,13.02
2019-04-23T01:20:10.941Z,13.06
2019-04-23T01:20:54.037Z,12.99
2019-04-23T01:21:49.343Z,12.96
2019-04-23T01:22:48.728Z,12.95
2019-04-23T01:23:54.781Z,12.98
2019-04-23T01:24:48.873Z,12.96
2019-04-23T01:26:00.332Z,12.98
2019-04-23T01:27:23.761Z,12.84
2019-04-23T01:28:15.979Z,12.86
2019-04-23T01:29:14.553Z,12.92
2019-04-23T01:30:15.911Z,12.83
2019-04-23T01:31:16.552Z,12.83
2019-04-23T01:32:17.298Z,12.76
2019-04-23T01:33:21.675Z,12.74
2019-04-23T01:34:21.845Z,12.76
2019-04-23T01:36:21.902Z,12.66
2019-04-23T01:37:19.064Z,12.78
2019-04-23T01:38:11.232Z,12.70
2019-04-23T01:39:15.770Z,12.63
2019-04-23T01:40:31.966Z,12.69
2019-04-23T01:41:17.959Z,12.71
2019-04-23T01:42:24.009Z,12.70
2019-04-23T01:43:16.504Z,12.61
2019-04-23T01:44:15.601Z,12.63
2019-04-23T01:45:20.394Z,12.58
2019-04-23T01:46:16.421Z,12.69
2019-04-23T01:47:20.928Z,12.58
2019-04-23T01:48:13.116Z,12.62
2019-04-23T01:49:18.266Z,12.55
2019-04-23T01:50:37.703Z,12.59
2019-04-23T01:51:08.163Z,12.58
2019-04-23T01:52:18.121Z,12.63
2019-04-23T01:54:22.824Z,12.53
2019-04-23T01:55:18.360Z,12.53
2019-04-23T01:56:14.780Z,12.59
2019-04-23T01:57:16.634Z,12.63
2019-04-23T01:58:37.029Z,12.62
2019-04-23T01:59:21.225Z,12.48
2019-04-23T02:01:05.330Z,12.55
2019-04-23T02:01:58.499Z,12.56
2019-04-23T02:04:03.495Z,12.48
2019-04-23T02:05:02.117Z,12.62
2019-04-23T02:07:04.420Z,12.48
2019-04-23T02:08:58.263Z,12.47
2019-04-23T02:12:01.048Z,12.44
2019-04-23T02:13:08.808Z,12.38
2019-04-23T02:13:55.125Z,12.51
2019-04-23T02:15:03.337Z,12.44
2019-04-23T02:16:15.214Z,12.41
2019-04-23T02:17:04.529Z,12.29
2019-04-23T02:18:06.130Z,12.47
2019-04-23T02:20:01.548Z,12.40
2019-04-23T02:21:10.770Z,12.31
2019-04-23T02:22:05.095Z,12.34
2019-04-23T02:23:04.342Z,12.36
2019-04-23T02:23:55.158Z,12.40
2019-04-23T02:25:02.091Z,12.36
2019-04-23T02:26:01.282Z,12.43
2019-04-23T02:27:00.006Z,12.40
2019-04-23T02:29:03.737Z,12.36
2019-04-23T02:32:02.908Z,12.34
2019-04-23T02:34:13.792Z,12.37
2019-04-23T02:36:02.381Z,12.36
2019-04-23T02:36:59.911Z,12.37
2019-04-23T02:38:09.966Z,12.31
2019-04-23T02:40:23.306Z,12.29
2019-04-23T02:42:19.171Z,12.23
2019-04-23T02:43:15.284Z,12.23
2019-04-23T02:44:13.147Z,12.31
2019-04-23T02:45:06.773Z,12.31
2019-04-23T02:46:05.589Z,12.29
2019-04-23T02:48:11.044Z,12.26
2019-04-23T02:50:29.636Z,12.36
2019-04-23T02:51:03.951Z,12.22
2019-04-23T02:52:11.211Z,12.28
2019-04-23T02:53:27.808Z,12.37
2019-04-23T02:54:12.754Z,12.29
2019-04-23T02:55:10.795Z,12.33
2019-04-23T02:58:10.307Z,12.36
2019-04-23T02:59:10.564Z,12.38
2019-04-23T03:00:18.910Z,12.36
2019-04-23T03:02:15.483Z,12.23
2019-04-23T03:03:29.657Z,12.31
2019-04-23T03:04:09.671Z,12.41
2019-04-23T03:05:00.688Z,12.38
2019-04-23T03:06:07.882Z,12.36
2019-04-23T03:08:02.218Z,12.41
2019-04-23T03:10:55.202Z,12.44
2019-04-23T03:11:54.110Z,12.36
2019-04-23T03:12:46.829Z,12.29
2019-04-23T03:14:49.189Z,12.43
2019-04-23T03:16:53.178Z,12.38
2019-04-23T03:17:57.587Z,12.33
2019-04-23T03:19:07.005Z,12.40
2019-04-23T03:19:47.246Z,12.38
2019-04-23T03:21:01.858Z,12.40
2019-04-23T03:21:52.284Z,12.41
2019-04-23T03:22:58.965Z,12.40
2019-04-23T03:25:05.288Z,12.38
2019-04-23T03:25:45.441Z,12.40
2019-04-23T03:27:40.903Z,12.41
2019-04-23T03:29:55.309Z,12.40
2019-04-23T03:31:41.437Z,12.25
2019-04-23T03:37:50.802Z,12.20
2019-04-23T03:38:48.726Z,12.29
2019-04-23T03:39:56.758Z,12.23
2019-04-23T03:41:02.605Z,12.22
2019-04-23T03:42:53.862Z,12.20
2019-04-23T03:46:04.292Z,12.20
2019-04-23T03:46:41.776Z,12.20
2019-04-23T03:48:06.005Z,12.18
2019-04-23T03:48:57.395Z,12.15
2019-04-23T03:49:55.378Z,12.10
2019-04-23T03:51:56.789Z,12.16
2019-04-23T03:54:21.903Z,12.07
2019-04-23T03:54:44.891Z,12.07
2019-04-23T03:55:54.564Z,12.10
2019-04-23T03:57:45.190Z,11.98
2019-04-23T03:59:58.881Z,12.04
2019-04-23T04:01:07.634Z,11.97
2019-04-23T04:03:00.791Z,12.04
2019-04-23T04:04:22.987Z,11.89
2019-04-23T04:04:45.298Z,12.04
2019-04-23T04:08:02.340Z,11.86
2019-04-23T04:09:00.824Z,11.95
2019-04-23T04:09:47.811Z,11.94
2019-04-23T04:11:04.362Z,11.85
2019-04-23T04:11:52.242Z,11.85
2019-04-23T04:14:56.704Z,11.79
2019-04-23T04:15:55.395Z,11.85
2019-04-23T04:16:51.629Z,11.98
2019-04-23T04:18:04.021Z,11.86
2019-04-23T04:19:56.317Z,11.85
2019-04-23T04:21:01.164Z,11.85
2019-04-23T04:22:04.773Z,11.84
2019-04-23T04:23:00.399Z,11.81
2019-04-23T04:23:57.713Z,11.85
2019-04-23T04:27:01.818Z,11.82
2019-04-23T04:28:01.003Z,11.84
2019-04-23T04:28:51.071Z,11.75
2019-04-23T04:29:51.874Z,11.78
2019-04-23T04:30:49.532Z,11.78
2019-04-23T04:31:54.805Z,11.78
2019-04-23T04:35:48.771Z,11.73
2019-04-23T04:37:16.814Z,11.82
2019-04-23T04:38:54.840Z,11.76
2019-04-23T04:40:11.142Z,11.76
2019-04-23T04:40:56.569Z,11.79
2019-04-23T04:41:58.866Z,11.82
2019-04-23T04:43:11.256Z,11.81
2019-04-23T04:46:05.412Z,11.76
2019-04-23T04:46:49.877Z,11.79
2019-04-23T04:51:10.810Z,11.79
2019-04-23T04:52:00.546Z,11.86
2019-04-23T04:53:16.757Z,11.81
2019-04-23T04:54:12.663Z,11.91
2019-04-23T04:54:44.379Z,11.79
2019-04-23T04:56:03.101Z,11.82
2019-04-23T04:56:58.064Z,11.85
2019-04-23T04:58:58.477Z,11.95
2019-04-23T05:03:10.700Z,11.89
2019-04-23T05:03:40.957Z,12.01
2019-04-23T05:04:59.735Z,11.89
2019-04-23T05:07:02.199Z,11.97
2019-04-23T05:07:47.414Z,12.07
2019-04-23T05:08:54.383Z,12.05
2019-04-23T05:09:55.185Z,12.04
2019-04-23T05:11:05.406Z,12.07
2019-04-23T05:12:01.628Z,12.01
2019-04-23T05:12:52.539Z,12.13
2019-04-23T05:13:57.773Z,12.05
2019-04-23T05:15:03.238Z,12.10
2019-04-23T05:16:50.694Z,12.13
2019-04-23T05:19:51.140Z,12.22
2019-04-23T05:20:56.372Z,12.20
2019-04-23T05:21:55.704Z,12.20
2019-04-23T05:23:00.155Z,12.26
2019-04-23T05:23:50.467Z,12.25
2019-04-23T05:24:46.515Z,12.25
2019-04-23T05:25:44.966Z,12.25
2019-04-23T05:26:42.526Z,12.34
2019-04-23T05:27:58.899Z,12.18
2019-04-23T05:28:55.487Z,12.26
2019-04-23T05:29:46.226Z,12.29
2019-04-23T05:30:52.018Z,12.36
2019-04-23T05:31:42.678Z,12.31
2019-04-23T05:32:54.397Z,12.29
2019-04-23T05:33:46.417Z,12.33
2019-04-23T05:34:46.711Z,12.31
2019-04-23T05:36:06.201Z,12.33
2019-04-23T05:36:52.049Z,12.34
2019-04-23T05:38:02.450Z,12.38
2019-04-23T05:39:45.424Z,12.41
2019-04-23T05:41:50.056Z,12.48
2019-04-23T05:42:50.375Z,12.51
2019-04-23T05:43:46.752Z,12.45
2019-04-23T05:45:53.109Z,12.52
2019-04-23T05:46:56.370Z,12.59
2019-04-23T05:47:56.754Z,12.63
2019-04-23T05:48:52.832Z,12.58
2019-04-23T05:50:59.236Z,12.70
2019-04-23T05:51:54.296Z,12.70
2019-04-23T05:53:45.075Z,12.78
2019-04-23T05:54:54.796Z,12.73
2019-04-23T05:55:49.293Z,12.89
2019-04-23T05:56:49.476Z,12.92
2019-04-23T05:57:42.700Z,12.84
2019-04-23T05:58:52.679Z,12.95
2019-04-23T05:59:48.543Z,12.98
2019-04-23T06:01:54.283Z,12.92
2019-04-23T06:02:59.290Z,13.01
2019-04-23T06:03:48.985Z,13.09
2019-04-23T06:05:05.960Z,13.16
2019-04-23T06:07:04.747Z,13.20
2019-04-23T06:07:49.775Z,13.27
2019-04-23T06:08:47.540Z,13.53
2019-04-23T06:09:50.002Z,13.90
2019-04-23T06:10:47.855Z,14.23
2019-04-23T06:12:45.307Z,14.16
2019-04-23T06:13:58.750Z,13.90
2019-04-23T06:15:49.249Z,13.84
2019-04-23T06:17:03.741Z,13.78
2019-04-23T06:17:46.281Z,13.75
2019-04-23T06:19:55.131Z,13.73
2019-04-23T06:20:55.594Z,13.79
2019-04-23T06:22:04.444Z,14.12
2019-04-23T06:23:06.030Z,14.64
2019-04-23T06:24:46.733Z,15.19
2019-04-23T06:25:57.263Z,15.34
2019-04-23T06:27:48.254Z,16.00
2019-04-23T06:28:56.234Z,16.07
2019-04-23T06:29:46.521Z,16.52
2019-04-23T06:31:50.824Z,16.49
2019-04-23T06:32:44.478Z,16.54
2019-04-23T06:33:46.358Z,16.97
2019-04-23T06:34:47.180Z,16.67
2019-04-23T06:35:54.980Z,16.77
2019-04-23T06:38:23.017Z,16.94
2019-04-23T06:38:54.473Z,16.99
2019-04-23T06:39:53.920Z,17.05
2019-04-23T06:40:51.931Z,17.10
2019-04-23T06:41:53.050Z,16.94
2019-04-23T06:42:42.896Z,17.09
2019-04-23T06:43:56.359Z,17.24
2019-04-23T06:44:51.075Z,17.25
2019-04-23T06:45:45.609Z,17.38
2019-04-23T06:46:54.902Z,17.76
2019-04-23T06:47:42.958Z,17.90
2019-04-23T06:48:47.625Z,18.20
2019-04-23T06:49:54.541Z,18.14
2019-04-23T06:50:50.874Z,18.06
2019-04-23T06:51:55.144Z,18.23
2019-04-23T06:52:45.521Z,18.19
2019-04-23T06:53:43.715Z,18.27
2019-04-23T06:54:56.452Z,18.02
2019-04-23T06:55:49.597Z,17.98
2019-04-23T06:57:02.210Z,18.11
2019-04-23T06:57:47.799Z,18.27
2019-04-23T06:59:06.133Z,18.10
2019-04-23T06:59:52.545Z,18.27
2019-04-23T07:00:51.300Z,18.27
2019-04-23T07:01:54.454Z,18.31
2019-04-23T07:03:11.166Z,18.54
2019-04-23T07:03:50.369Z,18.76
2019-04-23T07:04:58.670Z,19.71
2019-04-23T07:05:59.173Z,20.29
2019-04-23T07:06:58.305Z,21.22
2019-04-23T07:08:02.887Z,21.70
2019-04-23T07:09:05.178Z,21.89
2019-04-23T07:09:44.039Z,21.94
2019-04-23T07:10:54.359Z,21.93
2019-04-23T07:12:50.825Z,20.81
2019-04-23T07:14:53.042Z,21.27
2019-04-23T07:16:03.177Z,21.93
2019-04-23T07:16:46.500Z,22.22
2019-04-23T07:17:50.033Z,22.59
2019-04-23T07:18:46.958Z,22.60
2019-04-23T07:20:51.543Z,22.78
2019-04-23T07:21:51.174Z,22.14
2019-04-23T07:22:56.774Z,21.97
2019-04-23T07:24:06.420Z,22.09
2019-04-23T07:24:49.112Z,22.27
2019-04-23T07:26:03.754Z,22.11
2019-04-23T07:26:42.257Z,21.83
2019-04-23T07:27:49.352Z,21.11
2019-04-23T07:29:58.891Z,20.51
2019-04-23T07:30:49.671Z,20.56
2019-04-23T07:32:52.582Z,20.32
2019-04-23T07:34:57.403Z,19.89
2019-04-23T07:35:57.767Z,19.74
2019-04-23T07:36:47.833Z,20.20
2019-04-23T07:37:57.110Z,20.25
2019-04-23T07:39:58.898Z,20.42
2019-04-23T07:40:46.661Z,20.32
2019-04-23T07:41:58.836Z,19.90
2019-04-23T07:42:41.975Z,19.61
2019-04-23T07:43:54.482Z,19.67
2019-04-23T07:45:51.701Z,19.38
2019-04-23T07:47:03.334Z,19.50
2019-04-23T07:47:55.831Z,19.52
2019-04-23T07:48:47.684Z,19.40
2019-04-23T07:50:04.911Z,19.72
2019-04-23T07:50:48.033Z,19.60
2019-04-23T07:51:55.135Z,19.75
2019-04-23T07:53:01.826Z,19.72
2019-04-23T07:53:53.542Z,19.82
2019-04-23T07:54:54.424Z,20.07
2019-04-23T07:56:55.353Z,20.32
2019-04-23T07:57:58.291Z,20.27
2019-04-23T07:58:44.653Z,20.68
2019-04-23T07:59:56.885Z,20.82
2019-04-23T08:01:49.568Z,20.30
2019-04-23T08:02:57.859Z,20.34
2019-04-23T08:03:57.387Z,20.74
2019-04-23T08:05:05.992Z,20.86
2019-04-23T08:05:42.476Z,21.03
2019-04-23T08:06:52.406Z,21.21
2019-04-23T08:07:52.496Z,21.09
2019-04-23T08:08:52.678Z,20.83
2019-04-23T08:09:55.858Z,20.88
2019-04-23T08:11:17.947Z,20.83
2019-04-23T08:11:52.408Z,21.03
2019-04-23T08:12:50.617Z,21.37
2019-04-23T08:13:57.014Z,21.18
2019-04-23T08:14:53.468Z,21.27
2019-04-23T08:16:21.830Z,21.85
2019-04-23T08:17:04.276Z,21.40
2019-04-23T08:17:51.125Z,20.97
2019-04-23T08:18:53.726Z,20.86
2019-04-23T08:19:56.132Z,20.79
2019-04-23T08:20:55.653Z,20.94
2019-04-23T08:22:05.064Z,20.97
2019-04-23T08:22:53.801Z,21.06
2019-04-23T08:23:55.452Z,21.15
2019-04-23T08:24:58.894Z,21.30
2019-04-23T08:26:03.184Z,21.82
2019-04-23T08:27:02.711Z,21.73
2019-04-23T08:27:48.526Z,21.58
2019-04-23T08:29:45.829Z,21.56
2019-04-23T08:30:52.776Z,21.83
2019-04-23T08:32:00.588Z,21.77
2019-04-23T08:32:54.259Z,21.99
2019-04-23T08:33:56.942Z,21.77
2019-04-23T08:35:58.997Z,22.29
2019-04-23T08:36:58.313Z,22.61
2019-04-23T08:38:00.929Z,22.91
2019-04-23T08:38:55.498Z,22.64
2019-04-23T08:39:46.470Z,22.92
2019-04-23T08:41:06.160Z,23.00
2019-04-23T08:43:00.666Z,22.92
2019-04-23T08:44:19.430Z,22.66
2019-04-23T08:45:07.491Z,22.66
2019-04-23T08:45:52.512Z,22.81
2019-04-23T08:47:05.363Z,22.55
2019-04-23T08:47:54.648Z,22.45
2019-04-23T08:49:01.218Z,22.36
2019-04-23T08:50:09.215Z,22.51
2019-04-23T08:50:50.853Z,22.81
2019-04-23T08:52:03.735Z,22.23
2019-04-23T08:52:58.637Z,22.52
2019-04-23T08:54:21.911Z,22.51
2019-04-23T08:54:54.816Z,22.52
2019-04-23T08:55:58.768Z,22.89
2019-04-23T08:56:54.779Z,22.86
2019-04-23T08:57:47.044Z,22.92
2019-04-23T08:58:47.445Z,22.63
2019-04-23T09:00:05.990Z,22.63
2019-04-23T09:01:00.595Z,22.57
2019-04-23T09:02:07.777Z,23.03
2019-04-23T09:03:14.633Z,23.03
2019-04-23T09:03:47.802Z,22.60
2019-04-23T09:04:54.249Z,23.03
2019-04-23T09:06:53.422Z,23.40
2019-04-23T09:13:57.413Z,23.35
2019-04-23T09:15:05.210Z,23.57
2019-04-23T09:16:58.299Z,23.47
2019-04-23T09:17:57.386Z,23.62
2019-04-23T09:18:53.023Z,23.38
2019-04-23T09:20:48.132Z,23.26
2019-04-23T09:22:04.111Z,23.42
2019-04-23T09:22:53.032Z,23.29
2019-04-23T09:23:54.486Z,23.66
2019-04-23T09:24:55.828Z,23.24
2019-04-23T09:26:05.527Z,23.16
2019-04-23T09:26:58.660Z,23.01
2019-04-23T09:27:52.715Z,23.32
2019-04-23T09:29:00.072Z,23.00
2019-04-23T09:30:58.954Z,23.16
2019-04-23T09:32:52.062Z,23.37
2019-04-23T09:35:02.347Z,24.03
2019-04-23T09:35:52.520Z,24.59
2019-04-23T09:37:00.135Z,24.69
2019-04-23T09:42:04.034Z,24.40
2019-04-23T09:44:03.291Z,24.85
2019-04-23T09:47:10.693Z,23.81
2019-04-23T09:48:01.951Z,24.19
2019-04-23T09:49:06.349Z,24.61
2019-04-23T09:50:08.205Z,24.51
2019-04-23T09:51:06.192Z,24.55
2019-04-23T09:52:11.285Z,25.00
2019-04-23T09:53:09.770Z,25.26
2019-04-23T10:07:19.253Z,25.27
2019-04-23T10:08:15.275Z,25.47
2019-04-23T10:09:06.729Z,24.82
2019-04-23T10:10:03.563Z,24.64
2019-04-23T10:11:03.236Z,25.09
2019-04-23T10:12:05.026Z,24.92
2019-04-23T10:13:04.275Z,25.23
2019-04-23T10:14:03.344Z,25.39
2019-04-23T10:15:10.940Z,25.24
2019-04-23T10:16:04.441Z,25.17
2019-04-23T10:17:04.293Z,25.07
2019-04-23T10:18:04.618Z,25.26
2019-04-23T10:19:03.802Z,25.41
2019-04-23T10:20:04.614Z,25.09
2019-04-23T10:21:03.596Z,24.77
2019-04-23T10:22:04.924Z,24.21
2019-04-23T10:23:04.200Z,24.52
2019-04-23T10:24:05.303Z,24.56
2019-04-23T10:25:03.747Z,24.86
2019-04-23T10:26:03.957Z,25.38
2019-04-23T10:27:04.308Z,25.45
2019-04-23T10:28:08.506Z,25.05
2019-04-23T10:29:05.407Z,24.96
2019-04-23T10:30:04.140Z,24.94
2019-04-23T10:31:04.903Z,25.11
2019-04-23T10:32:03.997Z,25.48
2019-04-23T10:33:05.441Z,25.04
2019-04-23T10:34:04.489Z,25.27
2019-04-23T10:35:14.684Z,25.29
2019-04-23T10:36:09.394Z,25.48
2019-04-23T10:37:05.153Z,26.06
2019-04-23T10:38:10.032Z,26.23
2019-04-23T10:39:11.585Z,26.01
2019-04-23T10:40:08.038Z,25.76
2019-04-23T10:41:04.573Z,26.24
2019-04-23T10:42:05.627Z,26.45
2019-04-23T10:43:05.436Z,26.61
2019-04-23T10:44:04.957Z,26.54
2019-04-23T10:45:22.598Z,26.34
2019-04-23T10:46:27.989Z,26.31
2019-04-23T10:47:35.473Z,26.42
2019-04-23T10:48:41.477Z,26.34
2019-04-23T10:49:48.987Z,26.31
2019-04-23T10:50:40.620Z,26.24
2019-04-23T10:51:34.011Z,26.01
2019-04-23T10:52:30.811Z,26.15
2019-04-23T10:53:43.029Z,25.99
2019-04-23T10:55:42.331Z,26.09
2019-04-23T10:57:25.080Z,26.09
2019-04-23T10:59:35.020Z,25.29
2019-04-23T11:00:32.270Z,25.07
2019-04-23T11:01:35.833Z,25.11
2019-04-23T11:04:53.416Z,25.01
2019-04-23T11:05:42.924Z,25.07
2019-04-23T11:06:44.344Z,25.23
2019-04-23T11:08:36.152Z,25.63
2019-04-23T11:10:26.287Z,25.88
2019-04-23T11:11:34.476Z,25.74
2019-04-23T11:12:42.145Z,25.75
2019-04-23T11:15:11.191Z,25.94
2019-04-23T11:15:47.291Z,26.34
2019-04-23T11:17:39.907Z,26.53
2019-04-23T11:18:45.237Z,26.16
2019-04-23T11:19:43.959Z,26.35
2019-04-23T11:20:35.309Z,26.52
2019-04-23T11:21:38.482Z,26.32
2019-04-23T11:23:37.290Z,26.16
2019-04-23T11:24:48.911Z,26.23
2019-04-23T11:25:41.434Z,26.17
2019-04-23T11:26:37.093Z,26.12
2019-04-23T11:27:35.045Z,26.03
2019-04-23T11:28:33.322Z,25.96
2019-04-23T11:29:38.656Z,26.03
2019-04-23T11:31:41.344Z,26.35
2019-04-23T11:32:46.858Z,26.42
2019-04-23T11:33:37.874Z,26.52
2019-04-23T11:34:57.337Z,26.32
2019-04-23T11:36:01.450Z,26.30
2019-04-23T11:37:47.946Z,26.75
2019-04-23T11:38:56.049Z,26.71
2019-04-23T11:39:37.421Z,26.35
2019-04-23T11:40:32.797Z,26.26
2019-04-23T11:41:41.935Z,26.35
2019-04-23T11:42:41.294Z,25.07
2019-04-23T11:43:33.053Z,25.29
2019-04-23T11:44:41.627Z,25.97
2019-04-23T11:46:46.234Z,26.06
2019-04-23T11:48:14.708Z,26.24
2019-04-23T11:49:04.625Z,26.37
2019-04-23T11:50:56.016Z,25.96
2019-04-23T11:51:07.845Z,26.72
2019-04-23T11:52:41.562Z,27.06
2019-04-23T11:55:44.959Z,27.16
2019-04-23T11:57:14.985Z,27.19
2019-04-23T11:57:41.210Z,27.48
2019-04-23T11:58:36.138Z,27.81
2019-04-23T12:00:44.710Z,27.27
2019-04-23T12:02:40.302Z,27.33
2019-04-23T12:03:47.086Z,27.08
2019-04-23T12:04:55.956Z,26.81
2019-04-23T12:05:41.281Z,26.79
2019-04-23T12:06:31.314Z,26.68
2019-04-23T12:07:37.591Z,27.00
2019-04-23T12:08:41.423Z,27.21
2019-04-23T12:09:41.549Z,26.96
2019-04-23T12:10:54.349Z,27.21
2019-04-23T12:12:33.348Z,26.75
2019-04-23T12:13:56.642Z,26.72
2019-04-23T12:14:47.266Z,26.74
2019-04-23T12:16:49.146Z,26.45
2019-04-23T12:17:38.126Z,26.69
2019-04-23T12:21:43.999Z,26.11
2019-04-23T12:22:43.514Z,26.57
2019-04-23T12:25:51.602Z,26.16
2019-04-23T12:27:39.121Z,26.31
2019-04-23T12:28:40.820Z,26.63
2019-04-23T12:30:39.439Z,26.57
2019-04-23T12:31:37.904Z,26.64
2019-04-23T12:33:43.977Z,26.64
2019-04-23T12:34:47.538Z,26.27
2019-04-23T12:35:45.483Z,26.31
2019-04-23T12:36:44.128Z,26.24
2019-04-23T12:37:41.276Z,26.37
2019-04-23T12:38:33.115Z,26.32
2019-04-23T12:39:41.953Z,26.81
2019-04-23T12:40:38.278Z,26.78
2019-04-23T12:41:40.235Z,27.01
2019-04-23T12:43:33.273Z,27.21
2019-04-23T12:44:38.993Z,27.28
2019-04-23T12:46:57.528Z,26.79
2019-04-23T12:48:52.800Z,27.13
2019-04-23T12:51:45.198Z,27.93
2019-04-23T12:52:41.222Z,27.38
2019-04-23T12:53:33.616Z,27.18
2019-04-23T12:54:51.597Z,26.72
2019-04-23T12:56:49.111Z,26.41
2019-04-23T12:58:29.250Z,26.41
2019-04-23T12:59:36.650Z,26.57
2019-04-23T13:01:42.485Z,26.49
2019-04-23T13:02:46.753Z,26.56
2019-04-23T13:03:35.788Z,26.61
2019-04-23T13:04:42.226Z,26.44
2019-04-23T13:05:33.934Z,26.01
2019-04-23T13:06:40.724Z,25.84
2019-04-23T13:08:47.945Z,25.32
2019-04-23T13:10:32.342Z,25.23
2019-04-23T13:11:49.985Z,25.78
2019-04-23T13:12:42.945Z,26.23
2019-04-23T13:13:48.719Z,26.69
2019-04-23T13:14:45.485Z,26.57
2019-04-23T13:16:44.063Z,26.68
2019-04-23T13:17:44.479Z,26.45
2019-04-23T13:18:40.740Z,26.20
2019-04-23T13:20:36.854Z,26.64
2019-04-23T13:22:48.903Z,26.27
2019-04-23T13:23:34.558Z,26.45
2019-04-23T13:24:43.788Z,26.06
2019-04-23T13:25:41.954Z,26.15
2019-04-23T13:26:35.890Z,26.06
2019-04-23T13:27:51.582Z,25.82
2019-04-23T13:28:40.519Z,25.42
2019-04-23T13:29:47.529Z,25.32
2019-04-23T13:30:46.647Z,25.47
2019-04-23T13:31:36.320Z,25.37
2019-04-23T13:32:46.094Z,24.86
2019-04-23T13:34:45.892Z,24.75
2019-04-23T13:36:37.336Z,25.34
2019-04-23T13:37:42.845Z,25.09
2019-04-23T13:39:39.620Z,24.19
2019-04-23T13:40:46.455Z,24.30
2019-04-23T13:41:40.544Z,24.37
2019-04-23T13:44:42.673Z,23.89
2019-04-23T13:46:01.549Z,23.67
2019-04-23T13:46:34.461Z,23.28
2019-04-23T13:47:47.310Z,23.09
2019-04-23T13:48:30.109Z,23.03
2019-04-23T13:49:43.129Z,23.01
2019-04-23T13:50:50.046Z,23.03
2019-04-23T13:51:57.273Z,22.92
2019-04-23T13:53:50.332Z,22.94
2019-04-23T13:55:35.966Z,23.10
2019-04-23T13:58:59.905Z,22.67
2019-04-23T14:01:43.027Z,22.86
2019-04-23T14:04:45.122Z,22.57
2019-04-23T14:09:45.457Z,23.18
2019-04-23T14:10:43.493Z,23.21
2019-04-23T14:11:34.279Z,23.24
2019-04-23T14:13:03.661Z,23.18
2019-04-23T14:14:47.854Z,23.26
2019-04-23T14:15:46.246Z,23.16
2019-04-23T14:18:58.420Z,22.89
2019-04-23T14:19:35.021Z,22.89
2019-04-23T14:20:40.457Z,22.84
2019-04-23T14:21:36.983Z,22.71
2019-04-23T14:23:59.677Z,22.99
2019-04-23T14:25:02.066Z,23.01
2019-04-23T14:25:52.021Z,22.99
2019-04-23T14:27:49.470Z,23.15
2019-04-23T14:29:52.231Z,22.92
2019-04-23T14:30:46.789Z,22.60
2019-04-23T14:33:50.634Z,22.51
2019-04-23T14:34:43.536Z,22.63
2019-04-23T14:35:56.450Z,22.54
2019-04-23T14:36:43.166Z,22.61
2019-04-23T14:37:59.078Z,22.45
2019-04-23T14:38:40.065Z,22.38
2019-04-23T14:39:45.806Z,22.30
2019-04-23T14:40:54.169Z,22.30
2019-04-23T14:42:03.684Z,22.31
2019-04-23T14:44:41.072Z,22.55
2019-04-23T14:46:02.535Z,22.52
2019-04-23T14:46:50.188Z,22.48
2019-04-23T14:48:05.851Z,22.59
2019-04-23T14:48:46.434Z,22.61
2019-04-23T14:50:09.299Z,22.71
2019-04-23T14:50:41.290Z,22.71
2019-04-23T14:51:44.085Z,22.67
2019-04-23T14:52:50.333Z,22.59
2019-04-23T14:53:40.525Z,22.52
2019-04-23T14:55:19.873Z,22.55
2019-04-23T14:55:58.266Z,22.60
2019-04-23T14:56:44.780Z,22.51
2019-04-23T14:57:55.779Z,22.52
2019-04-23T14:58:51.102Z,22.55
2019-04-23T14:59:41.822Z,22.59
2019-04-23T15:01:44.854Z,22.66
2019-04-23T15:02:46.429Z,22.70
2019-04-23T15:03:52.077Z,22.54
2019-04-23T15:04:48.229Z,22.55
2019-04-23T15:05:45.835Z,22.57
2019-04-23T15:06:46.715Z,22.57
2019-04-23T15:07:42.475Z,22.51
2019-04-23T15:09:53.216Z,22.66
2019-04-23T15:11:52.750Z,22.73
2019-04-23T15:12:46.260Z,22.82
2019-04-23T15:13:45.687Z,22.84
2019-04-23T15:14:54.437Z,22.73
2019-04-23T15:15:45.965Z,22.73
2019-04-23T15:16:44.959Z,22.81
2019-04-23T15:17:47.237Z,22.76
2019-04-23T15:18:53.353Z,22.71
2019-04-23T15:19:53.049Z,22.73
2019-04-23T15:20:55.878Z,22.84
2019-04-23T15:22:50.579Z,22.97
2019-04-23T15:23:55.204Z,22.99
2019-04-23T15:24:54.625Z,22.71
2019-04-23T15:28:06.031Z,22.67
2019-04-23T15:28:17.750Z,22.66
2019-04-23T15:29:30.201Z,22.79
2019-04-23T15:30:47.358Z,22.76
2019-04-23T15:33:58.965Z,22.70
2019-04-23T15:34:40.389Z,22.73
2019-04-23T15:35:57.653Z,22.78
2019-04-23T15:38:00.501Z,22.94
2019-04-23T15:39:47.834Z,22.76
2019-04-23T15:40:41.769Z,22.78
2019-04-23T15:41:52.134Z,22.64
2019-04-23T15:42:51.798Z,22.61
2019-04-23T15:43:53.237Z,22.54
2019-04-23T15:44:45.339Z,22.52
2019-04-23T15:45:45.680Z,22.55
2019-04-23T15:47:04.646Z,22.64
2019-04-23T15:48:55.806Z,22.82
2019-04-23T15:49:49.008Z,22.63
2019-04-23T15:50:43.980Z,22.75
2019-04-23T15:52:58.193Z,22.54
2019-04-23T15:53:42.340Z,22.55
2019-04-23T15:54:42.790Z,22.69
2019-04-23T15:55:49.186Z,22.70
2019-04-23T15:58:53.682Z,22.57
2019-04-23T15:59:47.905Z,22.42
2019-04-23T16:00:46.778Z,22.42
2019-04-23T16:01:37.338Z,22.61
2019-04-23T16:02:15.115Z,22.57
2019-04-23T16:03:17.430Z,22.52
2019-04-23T16:04:18.131Z,22.44
2019-04-23T16:05:17.023Z,22.41
2019-04-23T16:06:19.671Z,22.52
2019-04-23T16:07:32.563Z,22.36
2019-04-23T16:08:51.719Z,22.36
2019-04-23T16:09:50.346Z,22.45
2019-04-23T16:10:49.165Z,22.44
2019-04-23T16:12:41.677Z,22.44
2019-04-23T16:13:53.384Z,22.44
2019-04-23T16:14:49.687Z,22.48
2019-04-23T16:15:43.463Z,22.42
2019-04-23T16:16:47.769Z,22.33
2019-04-23T16:17:44.765Z,22.30
2019-04-23T16:18:55.542Z,22.27
2019-04-23T16:19:45.862Z,22.20
2019-04-23T16:20:47.324Z,22.24
2019-04-23T16:22:41.012Z,22.33
2019-04-23T16:23:45.927Z,22.41
2019-04-23T16:24:51.917Z,22.31
2019-04-23T16:25:45.679Z,22.23
2019-04-23T16:26:51.011Z,22.27
2019-04-23T16:27:45.650Z,22.16
2019-04-23T16:29:07.100Z,22.30
2019-04-23T16:29:57.173Z,22.18
2019-04-23T16:31:03.368Z,22.29